< < Back
Terminal Aerodrome Forecast


Current Version              Previous Versions:   1  2  3  4  5  6  7  8  9  

Terminal Aerodrome Forecast

169
FTUS44 KOHX 291128
TAFBNA
TAF
KBNA 291128Z 2912/3012 07006KT P6SM FEW150
     FM291900 05011KT P6SM SCT045 SCT150
     FM300200 05005KT P6SM SKC=

Latest METAR

938
SAUS70 KWBC 291200 RRN
MTRBNA
METAR KBNA 291153Z 04003KT 10SM FEW250 23/21 A3015 RMK AO2 SLP202
T02280206 10239 20217 53010


USA.gov is the U.S. government's official web portal to all federal, state and local government web resources and services.